<?xml version="1.0" encoding="UTF-8" standalone="no" ?>
<gpx xmlns="http://www.topografix.com/GPX/1/1" xmlns:xsi="http://www.w3.org/2001/XMLSchema-instance" xsi:schemaLocation="http://www.topografix.com/GPX/1/1 http://www.topografix.com/GPX/1/1/gpx.xsd" version="1.1" creator="VisuGPX - https://www.visugpx.com">
  <metadata>
    <name>ROUSSAS</name>
    <desc><![CDATA[une belle randonnée à ROUSSAS]]></desc>
  </metadata>
  <trk>
    <name><![CDATA[Sequence 2]]></name>
    <trkseg>
      <trkpt lat="44.43787" lon="4.78795">
        <ele>166</ele>
        <time>2015-09-06T09:14:59Z</time>
      </trkpt>
      <trkpt lat="44.43792" lon="4.78805">
        <ele>161</ele>
        <time>2015-09-06T09:15:08Z</time>
      </trkpt>
      <trkpt lat="44.43799" lon="4.78821">
        <ele>161</ele>
        <time>2015-09-06T09:15:19Z</time>
      </trkpt>
      <trkpt lat="44.43808" lon="4.7885">
        <ele>160</ele>
        <time>2015-09-06T09:15:39Z</time>
      </trkpt>
      <trkpt lat="44.43809" lon="4.78853">
        <ele>160</ele>
        <time>2015-09-06T09:15:41Z</time>
      </trkpt>
      <trkpt lat="44.4381" lon="4.78879">
        <ele>166</ele>
        <time>2015-09-06T09:15:58Z</time>
      </trkpt>
      <trkpt lat="44.43811" lon="4.78887">
        <ele>167</ele>
        <time>2015-09-06T09:16:03Z</time>
      </trkpt>
      <trkpt lat="44.43816" lon="4.78922">
        <ele>159</ele>
        <time>2015-09-06T09:16:22Z</time>
      </trkpt>
      <trkpt lat="44.43825" lon="4.78941">
        <ele>158</ele>
        <time>2015-09-06T09:16:35Z</time>
      </trkpt>
      <trkpt lat="44.4383" lon="4.78948">
        <ele>158</ele>
        <time>2015-09-06T09:16:42Z</time>
      </trkpt>
      <trkpt lat="44.4384" lon="4.78963">
        <ele>156</ele>
        <time>2015-09-06T09:16:55Z</time>
      </trkpt>
      <trkpt lat="44.43844" lon="4.7897">
        <ele>159</ele>
        <time>2015-09-06T09:17:00Z</time>
      </trkpt>
      <trkpt lat="44.43852" lon="4.78981">
        <ele>158</ele>
        <time>2015-09-06T09:17:11Z</time>
      </trkpt>
      <trkpt lat="44.4386" lon="4.7899">
        <ele>161</ele>
        <time>2015-09-06T09:17:20Z</time>
      </trkpt>
      <trkpt lat="44.43871" lon="4.79004">
        <ele>159</ele>
        <time>2015-09-06T09:17:33Z</time>
      </trkpt>
      <trkpt lat="44.43884" lon="4.79022">
        <ele>156</ele>
        <time>2015-09-06T09:17:48Z</time>
      </trkpt>
      <trkpt lat="44.43888" lon="4.7903">
        <ele>157</ele>
        <time>2015-09-06T09:17:53Z</time>
      </trkpt>
      <trkpt lat="44.43896" lon="4.79042">
        <ele>155</ele>
        <time>2015-09-06T09:18:04Z</time>
      </trkpt>
      <trkpt lat="44.43906" lon="4.79054">
        <ele>159</ele>
        <time>2015-09-06T09:18:16Z</time>
      </trkpt>
      <trkpt lat="44.43923" lon="4.7907">
        <ele>160</ele>
        <time>2015-09-06T09:18:35Z</time>
      </trkpt>
      <trkpt lat="44.43925" lon="4.79072">
        <ele>160</ele>
        <time>2015-09-06T09:18:37Z</time>
      </trkpt>
      <trkpt lat="44.43933" lon="4.79082">
        <ele>162</ele>
        <time>2015-09-06T09:18:48Z</time>
      </trkpt>
      <trkpt lat="44.4394" lon="4.791">
        <ele>163</ele>
        <time>2015-09-06T09:19:02Z</time>
      </trkpt>
      <trkpt lat="44.43948" lon="4.79118">
        <ele>170</ele>
        <time>2015-09-06T09:19:16Z</time>
      </trkpt>
      <trkpt lat="44.43953" lon="4.79121">
        <ele>170</ele>
        <time>2015-09-06T09:19:21Z</time>
      </trkpt>
      <trkpt lat="44.43969" lon="4.7913">
        <ele>175</ele>
        <time>2015-09-06T09:19:39Z</time>
      </trkpt>
      <trkpt lat="44.43971" lon="4.79131">
        <ele>176</ele>
        <time>2015-09-06T09:19:43Z</time>
      </trkpt>
      <trkpt lat="44.43983" lon="4.79137">
        <ele>175</ele>
        <time>2015-09-06T09:19:55Z</time>
      </trkpt>
      <trkpt lat="44.44" lon="4.79147">
        <ele>176</ele>
        <time>2015-09-06T09:20:09Z</time>
      </trkpt>
      <trkpt lat="44.44008" lon="4.79158">
        <ele>174</ele>
        <time>2015-09-06T09:20:22Z</time>
      </trkpt>
      <trkpt lat="44.44017" lon="4.79166">
        <ele>177</ele>
        <time>2015-09-06T09:20:32Z</time>
      </trkpt>
      <trkpt lat="44.44023" lon="4.7917">
        <ele>180</ele>
        <time>2015-09-06T09:20:38Z</time>
      </trkpt>
      <trkpt lat="44.44033" lon="4.79175">
        <ele>179</ele>
        <time>2015-09-06T09:20:49Z</time>
      </trkpt>
      <trkpt lat="44.4405" lon="4.792">
        <ele>179</ele>
        <time>2015-09-06T09:21:09Z</time>
      </trkpt>
      <trkpt lat="44.4405" lon="4.79203">
        <ele>177</ele>
        <time>2015-09-06T09:21:11Z</time>
      </trkpt>
      <trkpt lat="44.44051" lon="4.79216">
        <ele>176</ele>
        <time>2015-09-06T09:21:22Z</time>
      </trkpt>
      <trkpt lat="44.44052" lon="4.79236">
        <ele>177</ele>
        <time>2015-09-06T09:21:36Z</time>
      </trkpt>
      <trkpt lat="44.44053" lon="4.7925">
        <ele>178</ele>
        <time>2015-09-06T09:21:44Z</time>
      </trkpt>
      <trkpt lat="44.44056" lon="4.79267">
        <ele>179</ele>
        <time>2015-09-06T09:21:55Z</time>
      </trkpt>
      <trkpt lat="44.4407" lon="4.79285">
        <ele>181</ele>
        <time>2015-09-06T09:22:14Z</time>
      </trkpt>
      <trkpt lat="44.44074" lon="4.79289">
        <ele>183</ele>
        <time>2015-09-06T09:22:19Z</time>
      </trkpt>
      <trkpt lat="44.44081" lon="4.79293">
        <ele>181</ele>
        <time>2015-09-06T09:22:28Z</time>
      </trkpt>
      <trkpt lat="44.44092" lon="4.79301">
        <ele>183</ele>
        <time>2015-09-06T09:22:39Z</time>
      </trkpt>
      <trkpt lat="44.44104" lon="4.79309">
        <ele>187</ele>
        <time>2015-09-06T09:22:54Z</time>
      </trkpt>
      <trkpt lat="44.44111" lon="4.79314">
        <ele>187</ele>
        <time>2015-09-06T09:23:01Z</time>
      </trkpt>
      <trkpt lat="44.44121" lon="4.79319">
        <ele>190</ele>
        <time>2015-09-06T09:23:12Z</time>
      </trkpt>
      <trkpt lat="44.44128" lon="4.79322">
        <ele>187</ele>
        <time>2015-09-06T09:23:24Z</time>
      </trkpt>
      <trkpt lat="44.44137" lon="4.79325">
        <ele>180</ele>
        <time>2015-09-06T09:23:34Z</time>
      </trkpt>
      <trkpt lat="44.44148" lon="4.7933">
        <ele>187</ele>
        <time>2015-09-06T09:23:47Z</time>
      </trkpt>
      <trkpt lat="44.44155" lon="4.79337">
        <ele>181</ele>
        <time>2015-09-06T09:23:56Z</time>
      </trkpt>
      <trkpt lat="44.44165" lon="4.79343">
        <ele>190</ele>
        <time>2015-09-06T09:24:07Z</time>
      </trkpt>
      <trkpt lat="44.44176" lon="4.79348">
        <ele>190</ele>
        <time>2015-09-06T09:24:18Z</time>
      </trkpt>
      <trkpt lat="44.44188" lon="4.79354">
        <ele>197</ele>
        <time>2015-09-06T09:24:29Z</time>
      </trkpt>
      <trkpt lat="44.44199" lon="4.79358">
        <ele>197</ele>
        <time>2015-09-06T09:24:42Z</time>
      </trkpt>
      <trkpt lat="44.44213" lon="4.79361">
        <ele>194</ele>
        <time>2015-09-06T09:24:56Z</time>
      </trkpt>
      <trkpt lat="44.44218" lon="4.79362">
        <ele>200</ele>
        <time>2015-09-06T09:25:02Z</time>
      </trkpt>
      <trkpt lat="44.44228" lon="4.79365">
        <ele>181</ele>
        <time>2015-09-06T09:25:14Z</time>
      </trkpt>
      <trkpt lat="44.44238" lon="4.79368">
        <ele>206</ele>
        <time>2015-09-06T09:25:25Z</time>
      </trkpt>
      <trkpt lat="44.44246" lon="4.7937">
        <ele>198</ele>
        <time>2015-09-06T09:25:35Z</time>
      </trkpt>
      <trkpt lat="44.44261" lon="4.79377">
        <ele>210</ele>
        <time>2015-09-06T09:25:50Z</time>
      </trkpt>
      <trkpt lat="44.44267" lon="4.79381">
        <ele>209</ele>
        <time>2015-09-06T09:25:57Z</time>
      </trkpt>
      <trkpt lat="44.44279" lon="4.79387">
        <ele>209</ele>
        <time>2015-09-06T09:26:08Z</time>
      </trkpt>
      <trkpt lat="44.4429" lon="4.79395">
        <ele>202</ele>
        <time>2015-09-06T09:26:19Z</time>
      </trkpt>
      <trkpt lat="44.44303" lon="4.79406">
        <ele>195</ele>
        <time>2015-09-06T09:26:32Z</time>
      </trkpt>
      <trkpt lat="44.44312" lon="4.79411">
        <ele>196</ele>
        <time>2015-09-06T09:26:43Z</time>
      </trkpt>
      <trkpt lat="44.4432" lon="4.79414">
        <ele>216</ele>
        <time>2015-09-06T09:26:52Z</time>
      </trkpt>
      <trkpt lat="44.44339" lon="4.79419">
        <ele>214</ele>
        <time>2015-09-06T09:27:07Z</time>
      </trkpt>
      <trkpt lat="44.4435" lon="4.7942">
        <ele>201</ele>
        <time>2015-09-06T09:27:15Z</time>
      </trkpt>
      <trkpt lat="44.44366" lon="4.79422">
        <ele>217</ele>
        <time>2015-09-06T09:27:29Z</time>
      </trkpt>
      <trkpt lat="44.44374" lon="4.79422">
        <ele>221</ele>
        <time>2015-09-06T09:27:40Z</time>
      </trkpt>
      <trkpt lat="44.44383" lon="4.79422">
        <ele>222</ele>
        <time>2015-09-06T09:27:49Z</time>
      </trkpt>
      <trkpt lat="44.44397" lon="4.79419">
        <ele>225</ele>
        <time>2015-09-06T09:27:59Z</time>
      </trkpt>
      <trkpt lat="44.44409" lon="4.79411">
        <ele>226</ele>
        <time>2015-09-06T09:28:11Z</time>
      </trkpt>
      <trkpt lat="44.44419" lon="4.79405">
        <ele>228</ele>
        <time>2015-09-06T09:28:22Z</time>
      </trkpt>
      <trkpt lat="44.44429" lon="4.79401">
        <ele>208</ele>
        <time>2015-09-06T09:28:33Z</time>
      </trkpt>
      <trkpt lat="44.44442" lon="4.79394">
        <ele>225</ele>
        <time>2015-09-06T09:28:47Z</time>
      </trkpt>
      <trkpt lat="44.4445" lon="4.79389">
        <ele>229</ele>
        <time>2015-09-06T09:28:55Z</time>
      </trkpt>
      <trkpt lat="44.4446" lon="4.79387">
        <ele>217</ele>
        <time>2015-09-06T09:29:06Z</time>
      </trkpt>
      <trkpt lat="44.44448" lon="4.79409">
        <ele>221</ele>
        <time>2015-09-06T09:29:24Z</time>
      </trkpt>
      <trkpt lat="44.44444" lon="4.79415">
        <ele>215</ele>
        <time>2015-09-06T09:29:29Z</time>
      </trkpt>
      <trkpt lat="44.44434" lon="4.79428">
        <ele>224</ele>
        <time>2015-09-06T09:29:42Z</time>
      </trkpt>
      <trkpt lat="44.44431" lon="4.79436">
        <ele>211</ele>
        <time>2015-09-06T09:29:48Z</time>
      </trkpt>
      <trkpt lat="44.44425" lon="4.7945">
        <ele>224</ele>
        <time>2015-09-06T09:29:59Z</time>
      </trkpt>
      <trkpt lat="44.44415" lon="4.79476">
        <ele>221</ele>
        <time>2015-09-06T09:30:19Z</time>
      </trkpt>
      <trkpt lat="44.44414" lon="4.79479">
        <ele>223</ele>
        <time>2015-09-06T09:30:21Z</time>
      </trkpt>
      <trkpt lat="44.4441" lon="4.79494">
        <ele>201</ele>
        <time>2015-09-06T09:30:32Z</time>
      </trkpt>
      <trkpt lat="44.44404" lon="4.79511">
        <ele>222</ele>
        <time>2015-09-06T09:30:43Z</time>
      </trkpt>
      <trkpt lat="44.44398" lon="4.79527">
        <ele>202</ele>
        <time>2015-09-06T09:30:54Z</time>
      </trkpt>
      <trkpt lat="44.4439" lon="4.79552">
        <ele>200</ele>
        <time>2015-09-06T09:31:12Z</time>
      </trkpt>
      <trkpt lat="44.44387" lon="4.79557">
        <ele>220</ele>
        <time>2015-09-06T09:31:16Z</time>
      </trkpt>
      <trkpt lat="44.44377" lon="4.79565">
        <ele>220</ele>
        <time>2015-09-06T09:31:29Z</time>
      </trkpt>
      <trkpt lat="44.44373" lon="4.79576">
        <ele>219</ele>
        <time>2015-09-06T09:31:38Z</time>
      </trkpt>
      <trkpt lat="44.44371" lon="4.79596">
        <ele>212</ele>
        <time>2015-09-06T09:31:49Z</time>
      </trkpt>
      <trkpt lat="44.44372" lon="4.79613">
        <ele>214</ele>
        <time>2015-09-06T09:32:00Z</time>
      </trkpt>
      <trkpt lat="44.44375" lon="4.79634">
        <ele>213</ele>
        <time>2015-09-06T09:32:13Z</time>
      </trkpt>
      <trkpt lat="44.44376" lon="4.79651">
        <ele>206</ele>
        <time>2015-09-06T09:32:23Z</time>
      </trkpt>
      <trkpt lat="44.44377" lon="4.7967">
        <ele>190</ele>
        <time>2015-09-06T09:32:34Z</time>
      </trkpt>
      <trkpt lat="44.44374" lon="4.79692">
        <ele>209</ele>
        <time>2015-09-06T09:32:49Z</time>
      </trkpt>
      <trkpt lat="44.44368" lon="4.79701">
        <ele>188</ele>
        <time>2015-09-06T09:32:55Z</time>
      </trkpt>
      <trkpt lat="44.44358" lon="4.79714">
        <ele>207</ele>
        <time>2015-09-06T09:33:06Z</time>
      </trkpt>
      <trkpt lat="44.44347" lon="4.79726">
        <ele>220</ele>
        <time>2015-09-06T09:33:19Z</time>
      </trkpt>
      <trkpt lat="44.44329" lon="4.79737">
        <ele>195</ele>
        <time>2015-09-06T09:33:36Z</time>
      </trkpt>
      <trkpt lat="44.44323" lon="4.79741">
        <ele>222</ele>
        <time>2015-09-06T09:33:41Z</time>
      </trkpt>
      <trkpt lat="44.44313" lon="4.79748">
        <ele>217</ele>
        <time>2015-09-06T09:33:50Z</time>
      </trkpt>
      <trkpt lat="44.44304" lon="4.79755">
        <ele>214</ele>
        <time>2015-09-06T09:34:02Z</time>
      </trkpt>
      <trkpt lat="44.44294" lon="4.79762">
        <ele>211</ele>
        <time>2015-09-06T09:34:16Z</time>
      </trkpt>
      <trkpt lat="44.44281" lon="4.79779">
        <ele>192</ele>
        <time>2015-09-06T09:34:33Z</time>
      </trkpt>
      <trkpt lat="44.44275" lon="4.79785">
        <ele>202</ele>
        <time>2015-09-06T09:34:40Z</time>
      </trkpt>
      <trkpt lat="44.44272" lon="4.79789">
        <ele>208</ele>
        <time>2015-09-06T09:34:45Z</time>
      </trkpt>
      <trkpt lat="44.44258" lon="4.79803">
        <ele>196</ele>
        <time>2015-09-06T09:35:00Z</time>
      </trkpt>
      <trkpt lat="44.4425" lon="4.7981">
        <ele>210</ele>
        <time>2015-09-06T09:35:09Z</time>
      </trkpt>
      <trkpt lat="44.44243" lon="4.79817">
        <ele>205</ele>
        <time>2015-09-06T09:35:18Z</time>
      </trkpt>
      <trkpt lat="44.44232" lon="4.79829">
        <ele>181</ele>
        <time>2015-09-06T09:35:33Z</time>
      </trkpt>
      <trkpt lat="44.44224" lon="4.79832">
        <ele>203</ele>
        <time>2015-09-06T09:35:42Z</time>
      </trkpt>
      <trkpt lat="44.44216" lon="4.79832">
        <ele>202</ele>
        <time>2015-09-06T09:35:51Z</time>
      </trkpt>
      <trkpt lat="44.44203" lon="4.79834">
        <ele>185</ele>
        <time>2015-09-06T09:36:08Z</time>
      </trkpt>
      <trkpt lat="44.4419" lon="4.79835">
        <ele>200</ele>
        <time>2015-09-06T09:36:19Z</time>
      </trkpt>
      <trkpt lat="44.44185" lon="4.79835">
        <ele>190</ele>
        <time>2015-09-06T09:36:24Z</time>
      </trkpt>
      <trkpt lat="44.44173" lon="4.79835">
        <ele>191</ele>
        <time>2015-09-06T09:36:35Z</time>
      </trkpt>
      <trkpt lat="44.44163" lon="4.79836">
        <ele>195</ele>
        <time>2015-09-06T09:36:46Z</time>
      </trkpt>
      <trkpt lat="44.44151" lon="4.79835">
        <ele>192</ele>
        <time>2015-09-06T09:36:57Z</time>
      </trkpt>
      <trkpt lat="44.44138" lon="4.79835">
        <ele>184</ele>
        <time>2015-09-06T09:37:09Z</time>
      </trkpt>
      <trkpt lat="44.44128" lon="4.79836">
        <ele>178</ele>
        <time>2015-09-06T09:37:19Z</time>
      </trkpt>
      <trkpt lat="44.44115" lon="4.79838">
        <ele>181</ele>
        <time>2015-09-06T09:37:30Z</time>
      </trkpt>
      <trkpt lat="44.44103" lon="4.79838">
        <ele>182</ele>
        <time>2015-09-06T09:37:41Z</time>
      </trkpt>
      <trkpt lat="44.4409" lon="4.79838">
        <ele>180</ele>
        <time>2015-09-06T09:37:53Z</time>
      </trkpt>
      <trkpt lat="44.44079" lon="4.7984">
        <ele>179</ele>
        <time>2015-09-06T09:38:03Z</time>
      </trkpt>
      <trkpt lat="44.44066" lon="4.79846">
        <ele>176</ele>
        <time>2015-09-06T09:38:15Z</time>
      </trkpt>
      <trkpt lat="44.44054" lon="4.79851">
        <ele>176</ele>
        <time>2015-09-06T09:38:25Z</time>
      </trkpt>
      <trkpt lat="44.44041" lon="4.79858">
        <ele>176</ele>
        <time>2015-09-06T09:38:36Z</time>
      </trkpt>
      <trkpt lat="44.44027" lon="4.79867">
        <ele>180</ele>
        <time>2015-09-06T09:38:49Z</time>
      </trkpt>
      <trkpt lat="44.44017" lon="4.7987">
        <ele>179</ele>
        <time>2015-09-06T09:38:58Z</time>
      </trkpt>
      <trkpt lat="44.44003" lon="4.79873">
        <ele>177</ele>
        <time>2015-09-06T09:39:11Z</time>
      </trkpt>
      <trkpt lat="44.43995" lon="4.79876">
        <ele>172</ele>
        <time>2015-09-06T09:39:20Z</time>
      </trkpt>
      <trkpt lat="44.43981" lon="4.79883">
        <ele>178</ele>
        <time>2015-09-06T09:39:31Z</time>
      </trkpt>
      <trkpt lat="44.43969" lon="4.79882">
        <ele>182</ele>
        <time>2015-09-06T09:39:42Z</time>
      </trkpt>
      <trkpt lat="44.43959" lon="4.79877">
        <ele>183</ele>
        <time>2015-09-06T09:39:53Z</time>
      </trkpt>
      <trkpt lat="44.43948" lon="4.79866">
        <ele>174</ele>
        <time>2015-09-06T09:40:04Z</time>
      </trkpt>
      <trkpt lat="44.4394" lon="4.79848">
        <ele>180</ele>
        <time>2015-09-06T09:40:16Z</time>
      </trkpt>
      <trkpt lat="44.43933" lon="4.79834">
        <ele>174</ele>
        <time>2015-09-06T09:40:26Z</time>
      </trkpt>
      <trkpt lat="44.43926" lon="4.79822">
        <ele>171</ele>
        <time>2015-09-06T09:40:37Z</time>
      </trkpt>
      <trkpt lat="44.43919" lon="4.79806">
        <ele>171</ele>
        <time>2015-09-06T09:40:48Z</time>
      </trkpt>
      <trkpt lat="44.43911" lon="4.79788">
        <ele>173</ele>
        <time>2015-09-06T09:41:00Z</time>
      </trkpt>
      <trkpt lat="44.43905" lon="4.79773">
        <ele>179</ele>
        <time>2015-09-06T09:41:10Z</time>
      </trkpt>
      <trkpt lat="44.43898" lon="4.79758">
        <ele>184</ele>
        <time>2015-09-06T09:41:21Z</time>
      </trkpt>
      <trkpt lat="44.43889" lon="4.79749">
        <ele>183</ele>
        <time>2015-09-06T09:41:32Z</time>
      </trkpt>
      <trkpt lat="44.43877" lon="4.79744">
        <ele>186</ele>
        <time>2015-09-06T09:41:43Z</time>
      </trkpt>
      <trkpt lat="44.43867" lon="4.79741">
        <ele>189</ele>
        <time>2015-09-06T09:41:54Z</time>
      </trkpt>
      <trkpt lat="44.43858" lon="4.7974">
        <ele>185</ele>
        <time>2015-09-06T09:42:05Z</time>
      </trkpt>
      <trkpt lat="44.43857" lon="4.79741">
        <ele>190</ele>
        <time>2015-09-06T09:42:16Z</time>
      </trkpt>
      <trkpt lat="44.43854" lon="4.79745">
        <ele>193</ele>
        <time>2015-09-06T09:42:22Z</time>
      </trkpt>
      <trkpt lat="44.43851" lon="4.79746">
        <ele>195</ele>
        <time>2015-09-06T09:42:30Z</time>
      </trkpt>
      <trkpt lat="44.43847" lon="4.79751">
        <ele>196</ele>
        <time>2015-09-06T09:42:41Z</time>
      </trkpt>
      <trkpt lat="44.43847" lon="4.79751">
        <ele>197</ele>
        <time>2015-09-06T09:42:53Z</time>
      </trkpt>
      <trkpt lat="44.43847" lon="4.79751">
        <ele>197</ele>
        <time>2015-09-06T09:42:55Z</time>
      </trkpt>
      <trkpt lat="44.43847" lon="4.79751">
        <ele>197</ele>
        <time>2015-09-06T09:42:58Z</time>
      </trkpt>
      <trkpt lat="44.43846" lon="4.79751">
        <ele>197</ele>
        <time>2015-09-06T09:43:02Z</time>
      </trkpt>
      <trkpt lat="44.43845" lon="4.79752">
        <ele>198</ele>
        <time>2015-09-06T09:43:04Z</time>
      </trkpt>
      <trkpt lat="44.43831" lon="4.79745">
        <ele>196</ele>
        <time>2015-09-06T09:43:15Z</time>
      </trkpt>
      <trkpt lat="44.43809" lon="4.79749">
        <ele>177</ele>
        <time>2015-09-06T09:43:30Z</time>
      </trkpt>
      <trkpt lat="44.43801" lon="4.79749">
        <ele>175</ele>
        <time>2015-09-06T09:43:43Z</time>
      </trkpt>
      <trkpt lat="44.43798" lon="4.7975">
        <ele>187</ele>
        <time>2015-09-06T09:43:48Z</time>
      </trkpt>
      <trkpt lat="44.43791" lon="4.7975">
        <ele>203</ele>
        <time>2015-09-06T09:43:59Z</time>
      </trkpt>
      <trkpt lat="44.43768" lon="4.79746">
        <ele>181</ele>
        <time>2015-09-06T09:44:20Z</time>
      </trkpt>
      <trkpt lat="44.43755" lon="4.79741">
        <ele>184</ele>
        <time>2015-09-06T09:44:30Z</time>
      </trkpt>
      <trkpt lat="44.43753" lon="4.79738">
        <ele>183</ele>
        <time>2015-09-06T09:44:32Z</time>
      </trkpt>
      <trkpt lat="44.43743" lon="4.79731">
        <ele>202</ele>
        <time>2015-09-06T09:44:46Z</time>
      </trkpt>
      <trkpt lat="44.43735" lon="4.79731">
        <ele>215</ele>
        <time>2015-09-06T09:44:57Z</time>
      </trkpt>
      <trkpt lat="44.43729" lon="4.79737">
        <ele>209</ele>
        <time>2015-09-06T09:45:05Z</time>
      </trkpt>
      <trkpt lat="44.43715" lon="4.79756">
        <ele>220</ele>
        <time>2015-09-06T09:45:23Z</time>
      </trkpt>
      <trkpt lat="44.43711" lon="4.79757">
        <ele>219</ele>
        <time>2015-09-06T09:45:27Z</time>
      </trkpt>
      <trkpt lat="44.43694" lon="4.79768">
        <ele>201</ele>
        <time>2015-09-06T09:45:44Z</time>
      </trkpt>
      <trkpt lat="44.4369" lon="4.79774">
        <ele>217</ele>
        <time>2015-09-06T09:45:49Z</time>
      </trkpt>
      <trkpt lat="44.43685" lon="4.79784">
        <ele>217</ele>
        <time>2015-09-06T09:46:03Z</time>
      </trkpt>
      <trkpt lat="44.43677" lon="4.79786">
        <ele>213</ele>
        <time>2015-09-06T09:46:15Z</time>
      </trkpt>
      <trkpt lat="44.43672" lon="4.79784">
        <ele>192</ele>
        <time>2015-09-06T09:46:22Z</time>
      </trkpt>
      <trkpt lat="44.43667" lon="4.79787">
        <ele>208</ele>
        <time>2015-09-06T09:46:33Z</time>
      </trkpt>
      <trkpt lat="44.43659" lon="4.79789">
        <ele>213</ele>
        <time>2015-09-06T09:46:45Z</time>
      </trkpt>
      <trkpt lat="44.43645" lon="4.79797">
        <ele>214</ele>
        <time>2015-09-06T09:46:56Z</time>
      </trkpt>
      <trkpt lat="44.43637" lon="4.79804">
        <ele>213</ele>
        <time>2015-09-06T09:47:06Z</time>
      </trkpt>
      <trkpt lat="44.43632" lon="4.79813">
        <ele>210</ele>
        <time>2015-09-06T09:47:17Z</time>
      </trkpt>
      <trkpt lat="44.43621" lon="4.79829">
        <ele>215</ele>
        <time>2015-09-06T09:47:30Z</time>
      </trkpt>
      <trkpt lat="44.43611" lon="4.79836">
        <ele>205</ele>
        <time>2015-09-06T09:47:39Z</time>
      </trkpt>
      <trkpt lat="44.43602" lon="4.79843">
        <ele>196</ele>
        <time>2015-09-06T09:47:50Z</time>
      </trkpt>
      <trkpt lat="44.43589" lon="4.79842">
        <ele>198</ele>
        <time>2015-09-06T09:48:02Z</time>
      </trkpt>
      <trkpt lat="44.43583" lon="4.7984">
        <ele>213</ele>
        <time>2015-09-06T09:48:12Z</time>
      </trkpt>
      <trkpt lat="44.43573" lon="4.79836">
        <ele>211</ele>
        <time>2015-09-06T09:48:23Z</time>
      </trkpt>
      <trkpt lat="44.43558" lon="4.7983">
        <ele>208</ele>
        <time>2015-09-06T09:48:39Z</time>
      </trkpt>
      <trkpt lat="44.43552" lon="4.79829">
        <ele>200</ele>
        <time>2015-09-06T09:48:45Z</time>
      </trkpt>
      <trkpt lat="44.43541" lon="4.79827">
        <ele>202</ele>
        <time>2015-09-06T09:48:56Z</time>
      </trkpt>
      <trkpt lat="44.43521" lon="4.79824">
        <ele>178</ele>
        <time>2015-09-06T09:49:13Z</time>
      </trkpt>
      <trkpt lat="44.43508" lon="4.79823">
        <ele>199</ele>
        <time>2015-09-06T09:49:25Z</time>
      </trkpt>
      <trkpt lat="44.43501" lon="4.79825">
        <ele>206</ele>
        <time>2015-09-06T09:49:31Z</time>
      </trkpt>
      <trkpt lat="44.4349" lon="4.79826">
        <ele>206</ele>
        <time>2015-09-06T09:49:40Z</time>
      </trkpt>
      <trkpt lat="44.43475" lon="4.79827">
        <ele>181</ele>
        <time>2015-09-06T09:49:52Z</time>
      </trkpt>
      <trkpt lat="44.43461" lon="4.79829">
        <ele>194</ele>
        <time>2015-09-06T09:50:03Z</time>
      </trkpt>
      <trkpt lat="44.43447" lon="4.79824">
        <ele>184</ele>
        <time>2015-09-06T09:50:15Z</time>
      </trkpt>
      <trkpt lat="44.43441" lon="4.79813">
        <ele>180</ele>
        <time>2015-09-06T09:50:24Z</time>
      </trkpt>
      <trkpt lat="44.43436" lon="4.79805">
        <ele>196</ele>
        <time>2015-09-06T09:50:35Z</time>
      </trkpt>
      <trkpt lat="44.43428" lon="4.79795">
        <ele>196</ele>
        <time>2015-09-06T09:50:47Z</time>
      </trkpt>
      <trkpt lat="44.43415" lon="4.79792">
        <ele>198</ele>
        <time>2015-09-06T09:50:57Z</time>
      </trkpt>
      <trkpt lat="44.43403" lon="4.79788">
        <ele>186</ele>
        <time>2015-09-06T09:51:09Z</time>
      </trkpt>
      <trkpt lat="44.43387" lon="4.79783">
        <ele>164</ele>
        <time>2015-09-06T09:51:25Z</time>
      </trkpt>
      <trkpt lat="44.43378" lon="4.79777">
        <ele>174</ele>
        <time>2015-09-06T09:51:34Z</time>
      </trkpt>
      <trkpt lat="44.43366" lon="4.79772">
        <ele>180</ele>
        <time>2015-09-06T09:51:45Z</time>
      </trkpt>
      <trkpt lat="44.4336" lon="4.79769">
        <ele>186</ele>
        <time>2015-09-06T09:51:52Z</time>
      </trkpt>
      <trkpt lat="44.43351" lon="4.79766">
        <ele>179</ele>
        <time>2015-09-06T09:52:03Z</time>
      </trkpt>
      <trkpt lat="44.43342" lon="4.79762">
        <ele>193</ele>
        <time>2015-09-06T09:52:14Z</time>
      </trkpt>
      <trkpt lat="44.4333" lon="4.79754">
        <ele>163</ele>
        <time>2015-09-06T09:52:29Z</time>
      </trkpt>
      <trkpt lat="44.43312" lon="4.79742">
        <ele>164</ele>
        <time>2015-09-06T09:52:46Z</time>
      </trkpt>
      <trkpt lat="44.43311" lon="4.79741">
        <ele>168</ele>
        <time>2015-09-06T09:52:47Z</time>
      </trkpt>
      <trkpt lat="44.43294" lon="4.79729">
        <ele>165</ele>
        <time>2015-09-06T09:53:07Z</time>
      </trkpt>
      <trkpt lat="44.43289" lon="4.79732">
        <ele>184</ele>
        <time>2015-09-06T09:53:13Z</time>
      </trkpt>
      <trkpt lat="44.43282" lon="4.79738">
        <ele>185</ele>
        <time>2015-09-06T09:53:21Z</time>
      </trkpt>
      <trkpt lat="44.43272" lon="4.79743">
        <ele>185</ele>
        <time>2015-09-06T09:53:32Z</time>
      </trkpt>
      <trkpt lat="44.43262" lon="4.79746">
        <ele>177</ele>
        <time>2015-09-06T09:53:42Z</time>
      </trkpt>
      <trkpt lat="44.43247" lon="4.7975">
        <ele>183</ele>
        <time>2015-09-06T09:53:57Z</time>
      </trkpt>
      <trkpt lat="44.43239" lon="4.79751">
        <ele>179</ele>
        <time>2015-09-06T09:54:05Z</time>
      </trkpt>
      <trkpt lat="44.4323" lon="4.79755">
        <ele>171</ele>
        <time>2015-09-06T09:54:16Z</time>
      </trkpt>
      <trkpt lat="44.43215" lon="4.79766">
        <ele>180</ele>
        <time>2015-09-06T09:54:30Z</time>
      </trkpt>
      <trkpt lat="44.43207" lon="4.7977">
        <ele>184</ele>
        <time>2015-09-06T09:54:38Z</time>
      </trkpt>
      <trkpt lat="44.43196" lon="4.79775">
        <ele>175</ele>
        <time>2015-09-06T09:54:48Z</time>
      </trkpt>
      <trkpt lat="44.4318" lon="4.79789">
        <ele>182</ele>
        <time>2015-09-06T09:55:06Z</time>
      </trkpt>
      <trkpt lat="44.43177" lon="4.79792">
        <ele>185</ele>
        <time>2015-09-06T09:55:10Z</time>
      </trkpt>
      <trkpt lat="44.43167" lon="4.79802">
        <ele>180</ele>
        <time>2015-09-06T09:55:21Z</time>
      </trkpt>
      <trkpt lat="44.43152" lon="4.79829">
        <ele>185</ele>
        <time>2015-09-06T09:55:41Z</time>
      </trkpt>
      <trkpt lat="44.4315" lon="4.79829">
        <ele>185</ele>
        <time>2015-09-06T09:55:43Z</time>
      </trkpt>
      <trkpt lat="44.43141" lon="4.79834">
        <ele>175</ele>
        <time>2015-09-06T09:55:54Z</time>
      </trkpt>
      <trkpt lat="44.43132" lon="4.79847">
        <ele>175</ele>
        <time>2015-09-06T09:56:05Z</time>
      </trkpt>
      <trkpt lat="44.43123" lon="4.79871">
        <ele>184</ele>
        <time>2015-09-06T09:56:23Z</time>
      </trkpt>
      <trkpt lat="44.43122" lon="4.79873">
        <ele>184</ele>
        <time>2015-09-06T09:56:27Z</time>
      </trkpt>
      <trkpt lat="44.43117" lon="4.79891">
        <ele>181</ele>
        <time>2015-09-06T09:56:41Z</time>
      </trkpt>
      <trkpt lat="44.43101" lon="4.7989">
        <ele>179</ele>
        <time>2015-09-06T09:56:52Z</time>
      </trkpt>
      <trkpt lat="44.4309" lon="4.79887">
        <ele>174</ele>
        <time>2015-09-06T09:57:01Z</time>
      </trkpt>
      <trkpt lat="44.4307" lon="4.79879">
        <ele>174</ele>
        <time>2015-09-06T09:57:21Z</time>
      </trkpt>
      <trkpt lat="44.43067" lon="4.79879">
        <ele>178</ele>
        <time>2015-09-06T09:57:27Z</time>
      </trkpt>
      <trkpt lat="44.43063" lon="4.79875">
        <ele>173</ele>
        <time>2015-09-06T09:57:35Z</time>
      </trkpt>
      <trkpt lat="44.43055" lon="4.79874">
        <ele>176</ele>
        <time>2015-09-06T09:57:44Z</time>
      </trkpt>
      <trkpt lat="44.43047" lon="4.79875">
        <ele>174</ele>
        <time>2015-09-06T09:57:56Z</time>
      </trkpt>
      <trkpt lat="44.43034" lon="4.79871">
        <ele>176</ele>
        <time>2015-09-06T09:58:13Z</time>
      </trkpt>
      <trkpt lat="44.4303" lon="4.79871">
        <ele>171</ele>
        <time>2015-09-06T09:58:17Z</time>
      </trkpt>
      <trkpt lat="44.4302" lon="4.79866">
        <ele>176</ele>
        <time>2015-09-06T09:58:28Z</time>
      </trkpt>
      <trkpt lat="44.43011" lon="4.79858">
        <ele>174</ele>
        <time>2015-09-06T09:58:39Z</time>
      </trkpt>
      <trkpt lat="44.42999" lon="4.79853">
        <ele>174</ele>
        <time>2015-09-06T09:58:53Z</time>
      </trkpt>
      <trkpt lat="44.42991" lon="4.79855">
        <ele>173</ele>
        <time>2015-09-06T09:59:05Z</time>
      </trkpt>
      <trkpt lat="44.42991" lon="4.79855">
        <ele>178</ele>
        <time>2015-09-06T09:59:12Z</time>
      </trkpt>
      <trkpt lat="44.42991" lon="4.79855">
        <ele>168</ele>
        <time>2015-09-06T09:59:15Z</time>
      </trkpt>
      <trkpt lat="44.42991" lon="4.79855">
        <ele>176</ele>
        <time>2015-09-06T09:59:18Z</time>
      </trkpt>
      <trkpt lat="44.42991" lon="4.79855">
        <ele>170</ele>
        <time>2015-09-06T09:59:21Z</time>
      </trkpt>
      <trkpt lat="44.42991" lon="4.79855">
        <ele>177</ele>
        <time>2015-09-06T09:59:24Z</time>
      </trkpt>
      <trkpt lat="44.42991" lon="4.79855">
        <ele>178</ele>
        <time>2015-09-06T09:59:27Z</time>
      </trkpt>
      <trkpt lat="44.42991" lon="4.79855">
        <ele>173</ele>
        <time>2015-09-06T09:59:30Z</time>
      </trkpt>
      <trkpt lat="44.42991" lon="4.79853">
        <ele>170</ele>
        <time>2015-09-06T09:59:34Z</time>
      </trkpt>
      <trkpt lat="44.42984" lon="4.79847">
        <ele>169</ele>
        <time>2015-09-06T09:59:45Z</time>
      </trkpt>
      <trkpt lat="44.42979" lon="4.79844">
        <ele>179</ele>
        <time>2015-09-06T09:59:57Z</time>
      </trkpt>
      <trkpt lat="44.42976" lon="4.79842">
        <ele>176</ele>
        <time>2015-09-06T10:00:07Z</time>
      </trkpt>
      <trkpt lat="44.42975" lon="4.79843">
        <ele>175</ele>
        <time>2015-09-06T10:00:17Z</time>
      </trkpt>
      <trkpt lat="44.42975" lon="4.79843">
        <ele>175</ele>
        <time>2015-09-06T10:00:20Z</time>
      </trkpt>
      <trkpt lat="44.42975" lon="4.79843">
        <ele>175</ele>
        <time>2015-09-06T10:00:23Z</time>
      </trkpt>
      <trkpt lat="44.42975" lon="4.79843">
        <ele>170</ele>
        <time>2015-09-06T10:00:27Z</time>
      </trkpt>
      <trkpt lat="44.42975" lon="4.79843">
        <ele>177</ele>
        <time>2015-09-06T10:00:29Z</time>
      </trkpt>
      <trkpt lat="44.42975" lon="4.79843">
        <ele>170</ele>
        <time>2015-09-06T10:00:32Z</time>
      </trkpt>
      <trkpt lat="44.42975" lon="4.79843">
        <ele>171</ele>
        <time>2015-09-06T10:00:35Z</time>
      </trkpt>
      <trkpt lat="44.42976" lon="4.79844">
        <ele>178</ele>
        <time>2015-09-06T10:00:38Z</time>
      </trkpt>
      <trkpt lat="44.4297" lon="4.79849">
        <ele>180</ele>
        <time>2015-09-06T10:00:50Z</time>
      </trkpt>
      <trkpt lat="44.42966" lon="4.79845">
        <ele>176</ele>
        <time>2015-09-06T10:01:01Z</time>
      </trkpt>
      <trkpt lat="44.42964" lon="4.79841">
        <ele>176</ele>
        <time>2015-09-06T10:01:11Z</time>
      </trkpt>
      <trkpt lat="44.42963" lon="4.79843">
        <ele>176</ele>
        <time>2015-09-06T10:01:22Z</time>
      </trkpt>
      <trkpt lat="44.42963" lon="4.79842">
        <ele>177</ele>
        <time>2015-09-06T10:01:25Z</time>
      </trkpt>
      <trkpt lat="44.42963" lon="4.79841">
        <ele>176</ele>
        <time>2015-09-06T10:01:32Z</time>
      </trkpt>
      <trkpt lat="44.42963" lon="4.79841">
        <ele>171</ele>
        <time>2015-09-06T10:01:34Z</time>
      </trkpt>
      <trkpt lat="44.42963" lon="4.79842">
        <ele>177</ele>
        <time>2015-09-06T10:01:37Z</time>
      </trkpt>
      <trkpt lat="44.42963" lon="4.79842">
        <ele>178</ele>
        <time>2015-09-06T10:01:40Z</time>
      </trkpt>
      <trkpt lat="44.42963" lon="4.79841">
        <ele>170</ele>
        <time>2015-09-06T10:01:43Z</time>
      </trkpt>
      <trkpt lat="44.42963" lon="4.79841">
        <ele>176</ele>
        <time>2015-09-06T10:01:46Z</time>
      </trkpt>
      <trkpt lat="44.42963" lon="4.79841">
        <ele>178</ele>
        <time>2015-09-06T10:01:49Z</time>
      </trkpt>
      <trkpt lat="44.42963" lon="4.79841">
        <ele>173</ele>
        <time>2015-09-06T10:01:52Z</time>
      </trkpt>
      <trkpt lat="44.42963" lon="4.79841">
        <ele>173</ele>
        <time>2015-09-06T10:01:55Z</time>
      </trkpt>
      <trkpt lat="44.42962" lon="4.7984">
        <ele>175</ele>
        <time>2015-09-06T10:01:59Z</time>
      </trkpt>
      <trkpt lat="44.42961" lon="4.79838">
        <ele>175</ele>
        <time>2015-09-06T10:02:09Z</time>
      </trkpt>
      <trkpt lat="44.42961" lon="4.79839">
        <ele>179</ele>
        <time>2015-09-06T10:02:12Z</time>
      </trkpt>
      <trkpt lat="44.4296" lon="4.79837">
        <ele>177</ele>
        <time>2015-09-06T10:02:19Z</time>
      </trkpt>
      <trkpt lat="44.4296" lon="4.79837">
        <ele>177</ele>
        <time>2015-09-06T10:02:21Z</time>
      </trkpt>
      <trkpt lat="44.4296" lon="4.79837">
        <ele>178</ele>
        <time>2015-09-06T10:02:24Z</time>
      </trkpt>
      <trkpt lat="44.42961" lon="4.79838">
        <ele>173</ele>
        <time>2015-09-06T10:02:27Z</time>
      </trkpt>
      <trkpt lat="44.42961" lon="4.79838">
        <ele>177</ele>
        <time>2015-09-06T10:02:31Z</time>
      </trkpt>
      <trkpt lat="44.42961" lon="4.79838">
        <ele>178</ele>
        <time>2015-09-06T10:02:33Z</time>
      </trkpt>
      <trkpt lat="44.42961" lon="4.79838">
        <ele>175</ele>
        <time>2015-09-06T10:02:37Z</time>
      </trkpt>
      <trkpt lat="44.42961" lon="4.79838">
        <ele>177</ele>
        <time>2015-09-06T10:02:39Z</time>
      </trkpt>
      <trkpt lat="44.42961" lon="4.79838">
        <ele>178</ele>
        <time>2015-09-06T10:02:43Z</time>
      </trkpt>
      <trkpt lat="44.42961" lon="4.79838">
        <ele>170</ele>
        <time>2015-09-06T10:02:45Z</time>
      </trkpt>
      <trkpt lat="44.42961" lon="4.79838">
        <ele>176</ele>
        <time>2015-09-06T10:02:48Z</time>
      </trkpt>
      <trkpt lat="44.42961" lon="4.79838">
        <ele>178</ele>
        <time>2015-09-06T10:02:51Z</time>
      </trkpt>
      <trkpt lat="44.42961" lon="4.79838">
        <ele>175</ele>
        <time>2015-09-06T10:02:54Z</time>
      </trkpt>
      <trkpt lat="44.42961" lon="4.79838">
        <ele>178</ele>
        <time>2015-09-06T10:02:57Z</time>
      </trkpt>
      <trkpt lat="44.42961" lon="4.79838">
        <ele>178</ele>
        <time>2015-09-06T10:03:01Z</time>
      </trkpt>
      <trkpt lat="44.42961" lon="4.79838">
        <ele>174</ele>
        <time>2015-09-06T10:03:03Z</time>
      </trkpt>
      <trkpt lat="44.42961" lon="4.79838">
        <ele>176</ele>
        <time>2015-09-06T10:03:06Z</time>
      </trkpt>
      <trkpt lat="44.42961" lon="4.79838">
        <ele>178</ele>
        <time>2015-09-06T10:03:09Z</time>
      </trkpt>
      <trkpt lat="44.42961" lon="4.79838">
        <ele>178</ele>
        <time>2015-09-06T10:03:12Z</time>
      </trkpt>
      <trkpt lat="44.42961" lon="4.79838">
        <ele>170</ele>
        <time>2015-09-06T10:03:15Z</time>
      </trkpt>
      <trkpt lat="44.42961" lon="4.79838">
        <ele>177</ele>
        <time>2015-09-06T10:03:18Z</time>
      </trkpt>
      <trkpt lat="44.42961" lon="4.79838">
        <ele>178</ele>
        <time>2015-09-06T10:03:21Z</time>
      </trkpt>
      <trkpt lat="44.42961" lon="4.79838">
        <ele>179</ele>
        <time>2015-09-06T10:03:24Z</time>
      </trkpt>
      <trkpt lat="44.42961" lon="4.79838">
        <ele>170</ele>
        <time>2015-09-06T10:03:27Z</time>
      </trkpt>
      <trkpt lat="44.42961" lon="4.79838">
        <ele>177</ele>
        <time>2015-09-06T10:03:30Z</time>
      </trkpt>
      <trkpt lat="44.42961" lon="4.79838">
        <ele>178</ele>
        <time>2015-09-06T10:03:33Z</time>
      </trkpt>
      <trkpt lat="44.42961" lon="4.79838">
        <ele>176</ele>
        <time>2015-09-06T10:03:36Z</time>
      </trkpt>
      <trkpt lat="44.42961" lon="4.79838">
        <ele>178</ele>
        <time>2015-09-06T10:03:39Z</time>
      </trkpt>
      <trkpt lat="44.42961" lon="4.79838">
        <ele>178</ele>
        <time>2015-09-06T10:03:42Z</time>
      </trkpt>
      <trkpt lat="44.42961" lon="4.79838">
        <ele>171</ele>
        <time>2015-09-06T10:03:45Z</time>
      </trkpt>
      <trkpt lat="44.42961" lon="4.79838">
        <ele>177</ele>
        <time>2015-09-06T10:03:48Z</time>
      </trkpt>
      <trkpt lat="44.42961" lon="4.79838">
        <ele>178</ele>
        <time>2015-09-06T10:03:51Z</time>
      </trkpt>
      <trkpt lat="44.42961" lon="4.79838">
        <ele>179</ele>
        <time>2015-09-06T10:03:54Z</time>
      </trkpt>
      <trkpt lat="44.42961" lon="4.79838">
        <ele>176</ele>
        <time>2015-09-06T10:03:57Z</time>
      </trkpt>
      <trkpt lat="44.42961" lon="4.79838">
        <ele>178</ele>
        <time>2015-09-06T10:04:00Z</time>
      </trkpt>
      <trkpt lat="44.42961" lon="4.79838">
        <ele>178</ele>
        <time>2015-09-06T10:04:03Z</time>
      </trkpt>
      <trkpt lat="44.42962" lon="4.79838">
        <ele>175</ele>
        <time>2015-09-06T10:04:07Z</time>
      </trkpt>
      <trkpt lat="44.42963" lon="4.79838">
        <ele>173</ele>
        <time>2015-09-06T10:04:17Z</time>
      </trkpt>
      <trkpt lat="44.42963" lon="4.79838">
        <ele>176</ele>
        <time>2015-09-06T10:04:20Z</time>
      </trkpt>
      <trkpt lat="44.42963" lon="4.79838">
        <ele>177</ele>
        <time>2015-09-06T10:04:23Z</time>
      </trkpt>
      <trkpt lat="44.42964" lon="4.79839">
        <ele>169</ele>
        <time>2015-09-06T10:04:26Z</time>
      </trkpt>
      <trkpt lat="44.42975" lon="4.79844">
        <ele>175</ele>
        <time>2015-09-06T10:04:42Z</time>
      </trkpt>
      <trkpt lat="44.42977" lon="4.79842">
        <ele>174</ele>
        <time>2015-09-06T10:04:48Z</time>
      </trkpt>
      <trkpt lat="44.42978" lon="4.79843">
        <ele>177</ele>
        <time>2015-09-06T10:05:00Z</time>
      </trkpt>
      <trkpt lat="44.42979" lon="4.79845">
        <ele>177</ele>
        <time>2015-09-06T10:05:02Z</time>
      </trkpt>
      <trkpt lat="44.42985" lon="4.7985">
        <ele>178</ele>
        <time>2015-09-06T10:05:13Z</time>
      </trkpt>
      <trkpt lat="44.42996" lon="4.79852">
        <ele>180</ele>
        <time>2015-09-06T10:05:25Z</time>
      </trkpt>
      <trkpt lat="44.4301" lon="4.79856">
        <ele>180</ele>
        <time>2015-09-06T10:05:38Z</time>
      </trkpt>
      <trkpt lat="44.43019" lon="4.79858">
        <ele>182</ele>
        <time>2015-09-06T10:05:46Z</time>
      </trkpt>
      <trkpt lat="44.4303" lon="4.79865">
        <ele>186</ele>
        <time>2015-09-06T10:05:57Z</time>
      </trkpt>
      <trkpt lat="44.43042" lon="4.79872">
        <ele>185</ele>
        <time>2015-09-06T10:06:11Z</time>
      </trkpt>
      <trkpt lat="44.43049" lon="4.79878">
        <ele>184</ele>
        <time>2015-09-06T10:06:20Z</time>
      </trkpt>
      <trkpt lat="44.43055" lon="4.79885">
        <ele>183</ele>
        <time>2015-09-06T10:06:30Z</time>
      </trkpt>
      <trkpt lat="44.43044" lon="4.79888">
        <ele>177</ele>
        <time>2015-09-06T10:06:47Z</time>
      </trkpt>
      <trkpt lat="44.43039" lon="4.79887">
        <ele>174</ele>
        <time>2015-09-06T10:06:53Z</time>
      </trkpt>
      <trkpt lat="44.4303" lon="4.79886">
        <ele>172</ele>
        <time>2015-09-06T10:07:03Z</time>
      </trkpt>
      <trkpt lat="44.43022" lon="4.7988">
        <ele>171</ele>
        <time>2015-09-06T10:07:14Z</time>
      </trkpt>
      <trkpt lat="44.43013" lon="4.79878">
        <ele>169</ele>
        <time>2015-09-06T10:07:25Z</time>
      </trkpt>
      <trkpt lat="44.43002" lon="4.79876">
        <ele>169</ele>
        <time>2015-09-06T10:07:36Z</time>
      </trkpt>
      <trkpt lat="44.42984" lon="4.79877">
        <ele>170</ele>
        <time>2015-09-06T10:07:53Z</time>
      </trkpt>
      <trkpt lat="44.42981" lon="4.79878">
        <ele>168</ele>
        <time>2015-09-06T10:07:59Z</time>
      </trkpt>
      <trkpt lat="44.42981" lon="4.79878">
        <ele>169</ele>
        <time>2015-09-06T10:08:09Z</time>
      </trkpt>
      <trkpt lat="44.42982" lon="4.79878">
        <ele>168</ele>
        <time>2015-09-06T10:08:13Z</time>
      </trkpt>
      <trkpt lat="44.42982" lon="4.79878">
        <ele>168</ele>
        <time>2015-09-06T10:08:15Z</time>
      </trkpt>
      <trkpt lat="44.42983" lon="4.79879">
        <ele>169</ele>
        <time>2015-09-06T10:08:18Z</time>
      </trkpt>
      <trkpt lat="44.43003" lon="4.7989">
        <ele>168</ele>
        <time>2015-09-06T10:08:35Z</time>
      </trkpt>
      <trkpt lat="44.43001" lon="4.79896">
        <ele>166</ele>
        <time>2015-09-06T10:08:48Z</time>
      </trkpt>
      <trkpt lat="44.43" lon="4.79898">
        <ele>166</ele>
        <time>2015-09-06T10:08:52Z</time>
      </trkpt>
      <trkpt lat="44.43003" lon="4.79903">
        <ele>167</ele>
        <time>2015-09-06T10:09:02Z</time>
      </trkpt>
      <trkpt lat="44.43007" lon="4.79908">
        <ele>166</ele>
        <time>2015-09-06T10:09:13Z</time>
      </trkpt>
      <trkpt lat="44.43008" lon="4.79909">
        <ele>167</ele>
        <time>2015-09-06T10:09:24Z</time>
      </trkpt>
      <trkpt lat="44.43008" lon="4.79909">
        <ele>167</ele>
        <time>2015-09-06T10:09:27Z</time>
      </trkpt>
      <trkpt lat="44.43008" lon="4.79909">
        <ele>168</ele>
        <time>2015-09-06T10:09:30Z</time>
      </trkpt>
      <trkpt lat="44.4301" lon="4.79911">
        <ele>168</ele>
        <time>2015-09-06T10:09:35Z</time>
      </trkpt>
      <trkpt lat="44.43015" lon="4.79912">
        <ele>166</ele>
        <time>2015-09-06T10:09:44Z</time>
      </trkpt>
      <trkpt lat="44.43016" lon="4.79912">
        <ele>166</ele>
        <time>2015-09-06T10:09:55Z</time>
      </trkpt>
      <trkpt lat="44.43016" lon="4.79912">
        <ele>166</ele>
        <time>2015-09-06T10:10:00Z</time>
      </trkpt>
      <trkpt lat="44.43016" lon="4.79912">
        <ele>166</ele>
        <time>2015-09-06T10:10:01Z</time>
      </trkpt>
      <trkpt lat="44.43018" lon="4.79913">
        <ele>165</ele>
        <time>2015-09-06T10:10:04Z</time>
      </trkpt>
      <trkpt lat="44.43032" lon="4.79921">
        <ele>166</ele>
        <time>2015-09-06T10:10:15Z</time>
      </trkpt>
      <trkpt lat="44.43048" lon="4.7995">
        <ele>168</ele>
        <time>2015-09-06T10:10:36Z</time>
      </trkpt>
      <trkpt lat="44.43049" lon="4.79951">
        <ele>167</ele>
        <time>2015-09-06T10:10:37Z</time>
      </trkpt>
      <trkpt lat="44.43044" lon="4.79962">
        <ele>168</ele>
        <time>2015-09-06T10:10:54Z</time>
      </trkpt>
      <trkpt lat="44.43044" lon="4.79964">
        <ele>165</ele>
        <time>2015-09-06T10:11:00Z</time>
      </trkpt>
      <trkpt lat="44.43044" lon="4.79964">
        <ele>165</ele>
        <time>2015-09-06T10:11:02Z</time>
      </trkpt>
      <trkpt lat="44.43044" lon="4.79965">
        <ele>165</ele>
        <time>2015-09-06T10:11:05Z</time>
      </trkpt>
      <trkpt lat="44.43044" lon="4.79965">
        <ele>165</ele>
        <time>2015-09-06T10:11:08Z</time>
      </trkpt>
      <trkpt lat="44.43044" lon="4.79965">
        <ele>165</ele>
        <time>2015-09-06T10:11:11Z</time>
      </trkpt>
      <trkpt lat="44.43044" lon="4.79965">
        <ele>165</ele>
        <time>2015-09-06T10:11:15Z</time>
      </trkpt>
      <trkpt lat="44.43044" lon="4.79965">
        <ele>165</ele>
        <time>2015-09-06T10:11:19Z</time>
      </trkpt>
      <trkpt lat="44.43044" lon="4.79965">
        <ele>165</ele>
        <time>2015-09-06T10:11:20Z</time>
      </trkpt>
      <trkpt lat="44.43044" lon="4.79965">
        <ele>165</ele>
        <time>2015-09-06T10:11:23Z</time>
      </trkpt>
      <trkpt lat="44.43042" lon="4.79967">
        <ele>161</ele>
        <time>2015-09-06T10:11:26Z</time>
      </trkpt>
      <trkpt lat="44.43032" lon="4.79995">
        <ele>149</ele>
        <time>2015-09-06T10:11:46Z</time>
      </trkpt>
      <trkpt lat="44.43032" lon="4.79996">
        <ele>148</ele>
        <time>2015-09-06T10:11:48Z</time>
      </trkpt>
      <trkpt lat="44.43028" lon="4.80009">
        <ele>149</ele>
        <time>2015-09-06T10:12:01Z</time>
      </trkpt>
      <trkpt lat="44.43025" lon="4.80028">
        <ele>150</ele>
        <time>2015-09-06T10:12:16Z</time>
      </trkpt>
      <trkpt lat="44.43026" lon="4.80034">
        <ele>151</ele>
        <time>2015-09-06T10:12:21Z</time>
      </trkpt>
      <trkpt lat="44.43027" lon="4.8005">
        <ele>152</ele>
        <time>2015-09-06T10:12:32Z</time>
      </trkpt>
      <trkpt lat="44.43027" lon="4.80063">
        <ele>150</ele>
        <time>2015-09-06T10:12:43Z</time>
      </trkpt>
      <trkpt lat="44.43025" lon="4.80075">
        <ele>145</ele>
        <time>2015-09-06T10:12:54Z</time>
      </trkpt>
      <trkpt lat="44.4302" lon="4.80105">
        <ele>144</ele>
        <time>2015-09-06T10:13:15Z</time>
      </trkpt>
      <trkpt lat="44.43018" lon="4.80112">
        <ele>143</ele>
        <time>2015-09-06T10:13:20Z</time>
      </trkpt>
      <trkpt lat="44.43015" lon="4.8012">
        <ele>142</ele>
        <time>2015-09-06T10:13:27Z</time>
      </trkpt>
      <trkpt lat="44.43012" lon="4.80117">
        <ele>141</ele>
        <time>2015-09-06T10:13:38Z</time>
      </trkpt>
      <trkpt lat="44.43007" lon="4.80109">
        <ele>140</ele>
        <time>2015-09-06T10:13:49Z</time>
      </trkpt>
      <trkpt lat="44.43" lon="4.80095">
        <ele>141</ele>
        <time>2015-09-06T10:14:03Z</time>
      </trkpt>
      <trkpt lat="44.42997" lon="4.80085">
        <ele>139</ele>
        <time>2015-09-06T10:14:11Z</time>
      </trkpt>
      <trkpt lat="44.42991" lon="4.80058">
        <ele>136</ele>
        <time>2015-09-06T10:14:29Z</time>
      </trkpt>
      <trkpt lat="44.42988" lon="4.8005">
        <ele>134</ele>
        <time>2015-09-06T10:14:35Z</time>
      </trkpt>
      <trkpt lat="44.42989" lon="4.80064">
        <ele>137</ele>
        <time>2015-09-06T10:14:54Z</time>
      </trkpt>
      <trkpt lat="44.42989" lon="4.80065">
        <ele>136</ele>
        <time>2015-09-06T10:14:55Z</time>
      </trkpt>
      <trkpt lat="44.42995" lon="4.80086">
        <ele>136</ele>
        <time>2015-09-06T10:15:12Z</time>
      </trkpt>
      <trkpt lat="44.42997" lon="4.80095">
        <ele>139</ele>
        <time>2015-09-06T10:15:19Z</time>
      </trkpt>
      <trkpt lat="44.43002" lon="4.80115">
        <ele>140</ele>
        <time>2015-09-06T10:15:34Z</time>
      </trkpt>
      <trkpt lat="44.43001" lon="4.80121">
        <ele>138</ele>
        <time>2015-09-06T10:15:39Z</time>
      </trkpt>
      <trkpt lat="44.4298" lon="4.80112">
        <ele>130</ele>
        <time>2015-09-06T10:15:54Z</time>
      </trkpt>
      <trkpt lat="44.42974" lon="4.80107">
        <ele>133</ele>
        <time>2015-09-06T10:16:01Z</time>
      </trkpt>
      <trkpt lat="44.42963" lon="4.801">
        <ele>130</ele>
        <time>2015-09-06T10:16:13Z</time>
      </trkpt>
      <trkpt lat="44.4295" lon="4.80094">
        <ele>126</ele>
        <time>2015-09-06T10:16:26Z</time>
      </trkpt>
      <trkpt lat="44.42942" lon="4.80094">
        <ele>123</ele>
        <time>2015-09-06T10:16:35Z</time>
      </trkpt>
      <trkpt lat="44.42943" lon="4.80094">
        <ele>123</ele>
        <time>2015-09-06T10:16:45Z</time>
      </trkpt>
      <trkpt lat="44.42942" lon="4.80094">
        <ele>125</ele>
        <time>2015-09-06T10:16:51Z</time>
      </trkpt>
    </trkseg>
  </trk>
</gpx>